Time;durP1;ratioP1;P1;durP2;ratioP2;P2;SDS_P1;SDS_P2;PMS_P1;PMS_P2;Temp;Humidity;BMP_temperature;BMP_pressure;BME280_temperature;BME280_humidity;BME280_pressure;Samples;Min_cycle;Max_cycle;Signal;HPM_P1;HPM_P2
2022/11/30 00:02:12;;;;;;;35.15;18.40;;;;;;;1.26;100.00;99367.91;4956987;28;20058;-77
2022/11/30 00:04:57;;;;;;;37.35;19.58;;;;;;;1.06;100.00;99374.31;4962301;28;20039;-78
2022/11/30 00:07:42;;;;;;;36.70;19.48;;;;;;;1.16;100.00;99370.66;4971397;28;20042;-77
2022/11/30 00:10:27;;;;;;;37.28;20.25;;;;;;;1.31;100.00;99363.47;4949742;28;20188;-78
2022/11/30 00:13:12;;;;;;;31.80;18.30;;;;;;;1.47;100.00;99367.44;4943724;28;20047;-77
2022/11/30 00:16:00;;;;;;;33.05;18.38;;;;;;;1.35;100.00;99368.53;4930557;28;20544;-76
2022/11/30 00:18:44;;;;;;;36.90;18.75;;;;;;;1.32;100.00;99381.50;4974291;28;20126;-77
2022/11/30 00:21:29;;;;;;;32.80;18.50;;;;;;;1.28;100.00;99379.03;4932142;28;20115;-78
2022/11/30 00:24:14;;;;;;;34.20;18.88;;;;;;;1.29;100.00;99371.25;4960144;28;20042;-77
2022/11/30 00:27:00;;;;;;;35.42;19.33;;;;;;;1.30;100.00;99380.72;4929447;28;20046;-77
2022/11/30 00:29:44;;;;;;;37.38;19.88;;;;;;;1.30;100.00;99383.31;4969553;28;20237;-79
2022/11/30 00:32:30;;;;;;;34.80;19.55;;;;;;;1.18;100.00;99386.97;4966878;28;20121;-77
2022/11/30 00:35:16;;;;;;;38.58;20.40;;;;;;;1.14;100.00;99394.81;4945077;28;20046;-79
2022/11/30 00:38:02;;;;;;;36.30;20.05;;;;;;;1.16;100.00;99388.72;4951002;28;20062;-77
2022/11/30 00:40:46;;;;;;;36.75;20.15;;;;;;;1.10;100.00;99389.72;4930164;28;20492;-78
2022/11/30 00:43:32;;;;;;;32.20;18.55;;;;;;;1.17;100.00;99394.75;4930857;28;20049;-77
2022/11/30 00:46:16;;;;;;;45.88;20.77;;;;;;;0.99;100.00;99399.41;4948915;28;20047;-77
2022/11/30 00:49:01;;;;;;;38.65;20.88;;;;;;;0.90;100.00;99392.66;4946405;28;20169;-77
2022/11/30 00:51:45;;;;;;;31.77;17.23;;;;;;;1.06;100.00;99390.63;4942280;28;20093;-79
2022/11/30 00:54:31;;;;;;;39.38;20.45;;;;;;;1.02;100.00;99383.84;4943189;28;20105;-76
2022/11/30 00:57:15;;;;;;;34.33;19.13;;;;;;;1.16;100.00;99382.72;4954669;28;20046;-77
2022/11/30 01:00:00;;;;;;;32.67;18.05;;;;;;;1.04;100.00;99384.69;4948688;28;20042;-74
2022/11/30 01:02:45;;;;;;;36.58;19.02;;;;;;;1.23;100.00;99385.16;4947532;28;20053;-77
2022/11/30 01:05:32;;;;;;;33.70;18.33;;;;;;;1.10;100.00;99389.72;4945699;28;20180;-77
2022/11/30 01:08:16;;;;;;;32.65;17.55;;;;;;;1.10;100.00;99387.13;4975698;28;20099;-77
2022/11/30 01:11:07;;;;;;;37.45;19.75;;;;;;;1.09;100.00;99393.16;4931461;28;20117;-76
2022/11/30 01:13:53;;;;;;;35.17;19.13;;;;;;;1.00;100.00;99384.75;4930307;28;20114;-79
2022/11/30 01:16:38;;;;;;;33.58;18.58;;;;;;;1.04;100.00;99384.69;4946020;28;20039;-77
2022/11/30 01:19:22;;;;;;;35.67;19.00;;;;;;;1.13;100.00;99387.97;4945367;28;20038;-77
2022/11/30 01:22:07;;;;;;;35.15;18.65;;;;;;;1.25;100.00;99381.69;4929840;28;20062;-76
2022/11/30 01:24:51;;;;;;;35.28;19.80;;;;;;;1.30;100.00;99391.06;4943262;28;20102;-77
2022/11/30 01:27:36;;;;;;;35.72;19.23;;;;;;;1.27;100.00;99387.66;4965707;28;20044;-77
2022/11/30 01:30:20;;;;;;;36.75;20.52;;;;;;;1.34;100.00;99384.06;4934132;28;20038;-76
2022/11/30 01:33:05;;;;;;;39.75;20.88;;;;;;;1.18;100.00;99389.56;4948468;28;20042;-77
2022/11/30 01:36:00;;;;;;;38.33;22.08;;;;;;;0.99;100.00;99381.31;4954308;28;20034;-78
2022/11/30 01:38:49;;;;;;;40.78;21.63;;;;;;;1.05;100.00;99388.94;4949219;28;20055;-77
2022/11/30 01:41:35;;;;;;;37.65;20.83;;;;;;;1.22;100.00;99377.44;4956178;28;20050;-75
2022/11/30 01:44:25;;;;;;;39.85;20.65;;;;;;;1.07;100.00;99389.78;4948464;28;20050;-77
2022/11/30 01:47:11;;;;;;;37.38;19.92;;;;;;;0.94;100.00;99385.72;4975335;28;20481;-76
2022/11/30 01:50:26;;;;;;;46.38;22.90;;;;;;;0.94;100.00;99388.28;4944872;28;20042;-79
2022/11/30 01:53:11;;;;;;;40.70;21.35;;;;;;;1.03;100.00;99377.78;4945006;28;20051;-76
2022/11/30 01:55:56;;;;;;;36.25;19.67;;;;;;;0.93;100.00;99382.28;4965313;28;20049;-78
2022/11/30 01:58:41;;;;;;;38.45;20.73;;;;;;;1.18;100.00;99378.38;4979656;28;20082;-78
2022/11/30 02:01:26;;;;;;;40.05;20.92;;;;;;;1.10;100.00;99379.38;4952020;28;20216;-81
2022/11/30 02:04:23;;;;;;;36.50;20.63;;;;;;;1.02;100.00;99375.25;4919191;28;20090;-76
2022/11/30 02:07:08;;;;;;;39.92;21.30;;;;;;;0.91;100.00;99378.03;4960462;28;20503;-78
2022/11/30 02:09:52;;;;;;;35.83;20.08;;;;;;;0.77;100.00;99376.56;4932307;28;20165;-77
2022/11/30 02:13:15;;;;;;;40.42;21.88;;;;;;;0.86;100.00;99378.97;4942469;28;20071;-77
2022/11/30 02:16:13;;;;;;;38.03;20.40;;;;;;;0.67;100.00;99391.34;4957177;28;20483;-77
2022/11/30 02:19:12;;;;;;;37.83;19.38;;;;;;;0.73;100.00;99388.66;4951431;28;20398;-77
2022/11/30 02:22:29;;;;;;;35.42;19.10;;;;;;;0.96;100.00;99389.13;4928004;28;20410;-77
2022/11/30 02:25:25;;;;;;;35.85;19.02;;;;;;;1.16;100.00;99391.31;4926976;28;20043;-78
2022/11/30 02:28:37;;;;;;;34.03;18.48;;;;;;;1.38;100.00;99377.13;4951378;28;20052;-78
2022/11/30 02:31:32;;;;;;;33.75;18.08;;;;;;;1.33;100.00;99380.66;4924407;28;20082;-75
2022/11/30 02:34:20;;;;;;;28.77;16.58;;;;;;;1.00;100.00;99375.28;4965061;28;20101;-76
2022/11/30 02:37:11;;;;;;;34.70;19.00;;;;;;;1.04;100.00;99371.78;4954837;28;20153;-76
2022/11/30 02:39:56;;;;;;;34.00;17.95;;;;;;;0.94;100.00;99376.25;4931450;28;20054;-77
2022/11/30 02:42:41;;;;;;;35.08;18.17;;;;;;;1.07;100.00;99376.00;4926468;28;20138;-76
2022/11/30 02:45:34;;;;;;;26.83;15.88;;;;;;;1.17;100.00;99372.38;4938173;28;20040;-78
2022/11/30 02:48:27;;;;;;;32.33;16.63;;;;;;;1.20;100.00;99367.16;4922119;28;20061;-76
2022/11/30 02:51:17;;;;;;;29.10;16.63;;;;;;;1.25;100.00;99366.19;4942000;28;21317;-76
2022/11/30 02:54:02;;;;;;;33.30;18.05;;;;;;;1.17;100.00;99366.34;4963027;28;20122;-76
2022/11/30 02:56:46;;;;;;;30.73;17.23;;;;;;;1.15;100.00;99373.28;4948571;28;20047;-77
2022/11/30 02:59:32;;;;;;;32.72;17.58;;;;;;;1.19;100.00;99367.19;4939007;28;20113;-76
2022/11/30 03:02:16;;;;;;;29.80;16.65;;;;;;;1.06;100.00;99375.16;4944083;28;20059;-77
2022/11/30 03:05:02;;;;;;;27.90;16.33;;;;;;;0.99;100.00;99378.75;4944884;28;20501;-75
2022/11/30 03:07:47;;;;;;;28.25;15.98;;;;;;;0.95;100.00;99377.09;4967150;28;20524;-77
2022/11/30 03:10:32;;;;;;;32.25;17.52;;;;;;;0.85;100.00;99386.72;4979898;28;20039;-77
2022/11/30 03:13:17;;;;;;;29.15;16.42;;;;;;;0.96;100.00;99389.97;4951485;28;20080;-78
2022/11/30 03:16:10;;;;;;;25.40;15.05;;;;;;;0.95;100.00;99384.81;4938527;28;20058;-76
2022/11/30 03:18:57;;;;;;;27.40;14.55;;;;;;;1.10;100.00;99392.28;4957958;28;20538;-76
2022/11/30 03:21:41;;;;;;;24.10;15.25;;;;;;;1.03;100.00;99395.03;4947218;28;20077;-76
2022/11/30 03:24:26;;;;;;;24.75;14.95;;;;;;;1.13;100.00;99400.88;4952114;28;20050;-79
2022/11/30 03:27:11;;;;;;;24.67;14.38;;;;;;;1.04;100.00;99397.56;4949963;28;20050;-77
2022/11/30 03:29:55;;;;;;;26.40;14.82;;;;;;;1.16;100.00;99393.88;4976619;28;20078;-77
2022/11/30 03:32:40;;;;;;;26.27;14.35;;;;;;;1.07;100.00;99392.34;4961084;28;20637;-77
2022/11/30 03:35:24;;;;;;;29.08;15.68;;;;;;;1.03;100.00;99397.63;4954897;28;20643;-78
2022/11/30 03:38:09;;;;;;;27.85;14.63;;;;;;;1.17;100.00;99400.78;4950117;28;20038;-77
2022/11/30 03:41:09;;;;;;;25.15;14.05;;;;;;;1.33;100.00;99392.72;4956681;28;20150;-81
2022/11/30 03:43:54;;;;;;;25.10;14.40;;;;;;;1.36;100.00;99395.22;4942367;28;20048;-77
2022/11/30 03:46:39;;;;;;;25.15;13.82;;;;;;;1.52;100.00;99389.75;4936501;28;20497;-77
2022/11/30 03:49:24;;;;;;;24.35;13.88;;;;;;;1.93;100.00;99387.13;4966891;28;20073;-77
2022/11/30 03:52:08;;;;;;;23.63;13.88;;;;;;;1.95;100.00;99393.97;4928636;28;20506;-77
2022/11/30 03:54:52;;;;;;;23.38;13.55;;;;;;;1.90;100.00;99388.03;4923753;28;20049;-78
2022/11/30 03:57:37;;;;;;;26.02;14.35;;;;;;;1.79;100.00;99387.44;4968404;28;20405;-77
2022/11/30 04:00:22;;;;;;;23.85;13.85;;;;;;;1.75;100.00;99394.41;4941251;28;20623;-78
2022/11/30 04:03:06;;;;;;;23.55;14.75;;;;;;;1.53;100.00;99386.28;4935929;28;20058;-76
2022/11/30 04:05:51;;;;;;;22.15;13.25;;;;;;;1.51;100.00;99381.16;4925937;28;20077;-79
2022/11/30 04:08:37;;;;;;;22.80;12.98;;;;;;;1.55;100.00;99393.09;4945808;28;20049;-79
2022/11/30 04:11:21;;;;;;;22.45;13.38;;;;;;;1.63;100.00;99395.53;4942287;28;20141;-79
2022/11/30 04:14:05;;;;;;;21.98;12.57;;;;;;;1.77;100.00;99396.94;4941562;28;20047;-77
2022/11/30 04:16:50;;;;;;;22.40;13.70;;;;;;;1.60;100.00;99393.00;4931603;28;20398;-78
2022/11/30 04:19:35;;;;;;;23.52;12.68;;;;;;;1.53;100.00;99394.88;4938480;28;20502;-80
2022/11/30 04:22:21;;;;;;;26.80;13.68;;;;;;;1.44;100.00;99385.59;4960872;28;20055;-78
2022/11/30 04:25:06;;;;;;;23.77;13.60;;;;;;;1.48;100.00;99392.38;4944882;28;20048;-79
2022/11/30 04:27:51;;;;;;;22.58;13.30;;;;;;;1.54;100.00;99390.56;4946407;28;20108;-79
2022/11/30 04:30:37;;;;;;;25.00;13.60;;;;;;;1.65;100.00;99391.16;4956903;28;20101;-78
2022/11/30 04:33:22;;;;;;;20.88;12.45;;;;;;;1.69;99.95;99389.38;4955451;28;20106;-79
2022/11/30 04:36:18;;;;;;;23.98;12.48;;;;;;;1.71;100.00;99396.19;4930374;28;20069;-79
2022/11/30 04:39:03;;;;;;;22.63;12.02;;;;;;;1.79;98.72;99392.59;4939199;28;20038;-84
2022/11/30 04:41:48;;;;;;;20.42;12.07;;;;;;;1.77;98.72;99387.47;4951403;28;20068;-80
2022/11/30 04:44:32;;;;;;;23.63;12.45;;;;;;;1.82;98.13;99395.97;4963117;28;20067;-79
2022/11/30 04:47:17;;;;;;;20.77;11.60;;;;;;;1.77;97.70;99396.94;4962327;28;20061;-79
2022/11/30 04:50:03;;;;;;;19.02;11.93;;;;;;;1.81;97.26;99401.19;4973725;28;20046;-82
2022/11/30 04:52:48;;;;;;;20.10;11.25;;;;;;;1.77;96.79;99400.41;4932857;28;20053;-78
2022/11/30 04:55:33;;;;;;;18.75;11.32;;;;;;;1.77;97.05;99390.06;4951504;28;20531;-79
2022/11/30 04:58:17;;;;;;;18.23;11.30;;;;;;;1.95;96.63;99398.28;4945711;28;20548;-80
2022/11/30 05:01:03;;;;;;;19.10;11.02;;;;;;;1.93;95.68;99393.16;4956135;28;20039;-77
2022/11/30 05:03:49;;;;;;;19.33;10.70;;;;;;;2.00;95.59;99400.75;4954280;28;20141;-79
2022/11/30 05:06:33;;;;;;;19.50;11.13;;;;;;;2.12;95.15;99397.03;4941827;28;20496;-79
2022/11/30 05:09:18;;;;;;;23.00;12.38;;;;;;;2.09;94.87;99392.78;4919761;28;20464;-79
2022/11/30 05:12:05;;;;;;;19.05;11.07;;;;;;;2.09;94.75;99397.94;4961842;28;20039;-80
2022/11/30 05:14:49;;;;;;;18.63;10.70;;;;;;;2.23;93.66;99402.81;4945072;28;20085;-80
2022/11/30 05:17:35;;;;;;;18.15;10.77;;;;;;;2.23;93.58;99400.22;4950557;28;20053;-82
2022/11/30 05:20:22;;;;;;;19.88;10.85;;;;;;;2.28;93.75;99400.09;4956456;28;20548;-81
2022/11/30 05:23:06;;;;;;;18.00;10.48;;;;;;;2.22;92.60;99407.13;4944137;28;20034;-80
2022/11/30 05:25:51;;;;;;;19.70;10.77;;;;;;;2.30;92.64;99409.50;4976185;28;20431;-81
2022/11/30 05:28:36;;;;;;;19.55;10.63;;;;;;;2.31;92.20;99408.66;4948367;28;20047;-77
2022/11/30 05:31:23;;;;;;;20.58;11.25;;;;;;;2.24;92.25;99406.25;4962356;28;20035;-82
2022/11/30 05:34:08;;;;;;;18.05;10.48;;;;;;;2.32;91.91;99407.75;4932184;28;20108;-83
2022/11/30 05:36:54;;;;;;;21.20;11.88;;;;;;;2.57;96.20;99414.91;4935019;28;20493;-80
2022/11/30 05:39:40;;;;;;;18.33;10.93;;;;;;;2.64;94.01;99409.59;4937766;28;20046;-81
2022/11/30 05:42:27;;;;;;;18.63;11.73;;;;;;;2.59;92.20;99412.28;4958959;28;20379;-80
2022/11/30 05:45:12;;;;;;;18.17;11.43;;;;;;;2.60;91.91;99413.97;4949671;28;20051;-80
2022/11/30 05:47:57;;;;;;;18.27;10.95;;;;;;;2.49;91.78;99411.66;4941792;28;20379;-82
2022/11/30 05:50:41;;;;;;;18.48;11.63;;;;;;;2.54;92.12;99407.22;4933500;28;20127;-83
2022/11/30 05:53:26;;;;;;;15.77;10.38;;;;;;;2.64;90.49;99412.16;4952266;28;20039;-80
2022/11/30 05:56:14;;;;;;;16.67;10.13;;;;;;;2.75;89.65;99425.69;4950154;28;20040;-82
2022/11/30 05:58:59;;;;;;;16.60;9.85;;;;;;;2.68;88.72;99422.41;4954397;28;20051;-80
2022/11/30 06:01:45;;;;;;;17.38;10.00;;;;;;;2.76;89.94;99421.38;4984862;28;20054;-80
2022/11/30 06:04:33;;;;;;;16.23;9.73;;;;;;;2.93;89.47;99426.09;4945351;28;20050;-81
2022/11/30 06:07:18;;;;;;;18.10;10.40;;;;;;;3.31;95.15;99429.38;4962862;28;20053;-81
2022/11/30 06:10:05;;;;;;;17.05;10.48;;;;;;;3.40;90.97;99435.19;4933304;28;20038;-82
2022/11/30 06:12:50;;;;;;;14.70;9.48;;;;;;;3.24;90.91;99432.19;4944077;28;20542;-79
2022/11/30 06:15:36;;;;;;;14.98;9.35;;;;;;;3.13;89.94;99432.47;4955488;28;20414;-83
2022/11/30 06:18:21;;;;;;;17.25;9.45;;;;;;;2.93;89.32;99426.09;4937984;28;20134;-82
2022/11/30 06:21:09;;;;;;;13.93;7.80;;;;;;;2.86;88.56;99434.91;4956043;28;20045;-82
2022/11/30 06:23:56;;;;;;;15.48;9.10;;;;;;;2.93;88.62;99434.72;4942911;28;20038;-82
2022/11/30 06:26:40;;;;;;;14.32;8.60;;;;;;;3.13;91.03;99432.47;4936660;28;20396;-81
2022/11/30 06:29:30;;;;;;;16.27;9.38;;;;;;;3.29;88.50;99433.75;4937686;28;20042;-81
2022/11/30 06:32:14;;;;;;;12.73;8.43;;;;;;;3.22;87.25;99432.22;4969771;28;20517;-80
2022/11/30 06:35:00;;;;;;;15.90;9.15;;;;;;;3.29;88.41;99438.94;4948063;28;20035;-78
2022/11/30 06:37:44;;;;;;;15.90;8.18;;;;;;;3.43;89.69;99438.53;4958460;28;20514;-79
2022/11/30 06:40:29;;;;;;;14.68;7.80;;;;;;;3.49;87.02;99450.50;4956904;28;20053;-80
2022/11/30 06:43:14;;;;;;;14.55;8.05;;;;;;;3.59;87.77;99452.81;4951918;28;20062;-80
2022/11/30 06:46:00;;;;;;;15.32;8.48;;;;;;;3.61;86.64;99454.44;4951377;28;20065;-80
2022/11/30 06:48:48;;;;;;;15.07;8.63;;;;;;;3.65;86.68;99452.63;4949595;28;20562;-79
2022/11/30 06:51:36;;;;;;;13.20;8.10;;;;;;;3.73;87.23;99450.66;4935497;28;20062;-82
2022/11/30 06:54:22;;;;;;;17.85;10.35;;;;;;;3.88;88.02;99458.88;4944266;28;20094;-80
2022/11/30 06:57:07;;;;;;;19.20;10.70;;;;;;;3.81;86.43;99459.06;4943195;28;20129;-78
2022/11/30 06:59:53;;;;;;;15.82;9.38;;;;;;;3.77;86.16;99456.63;4946988;28;20053;-77
2022/11/30 07:02:39;;;;;;;14.48;8.45;;;;;;;3.85;85.31;99456.38;4945918;28;20082;-80
2022/11/30 07:05:24;;;;;;;14.95;7.85;;;;;;;3.64;82.67;99461.31;4950600;28;20038;-81
2022/11/30 07:08:10;;;;;;;16.83;9.20;;;;;;;3.73;85.78;99458.44;4943314;28;20042;-81
2022/11/30 07:10:54;;;;;;;13.60;8.13;;;;;;;3.80;85.01;99464.31;4935181;28;20049;-80
2022/11/30 07:13:39;;;;;;;15.70;8.68;;;;;;;3.89;85.06;99463.16;4953937;28;20142;-81
2022/11/30 07:16:24;;;;;;;19.63;10.93;;;;;;;3.80;85.76;99461.72;4949016;28;20070;-82
2022/11/30 07:19:09;;;;;;;16.02;9.43;;;;;;;3.88;86.70;99462.34;4962727;28;20486;-82
2022/11/30 07:21:54;;;;;;;14.30;8.60;;;;;;;3.95;88.12;99462.97;4965669;28;20488;-79
2022/11/30 07:27:42;;;;;;;15.48;8.52;;;;;;;3.96;88.78;99459.50;4950970;28;20577;-82
2022/11/30 07:30:30;;;;;;;15.63;8.73;;;;;;;3.96;88.21;99456.91;4941990;28;20061;-83
2022/11/30 07:33:17;;;;;;;16.23;8.98;;;;;;;4.01;87.82;99449.00;4946570;28;20137;-80
2022/11/30 07:36:05;;;;;;;19.05;9.90;;;;;;;3.99;88.14;99446.44;4957642;28;20082;-87
2022/11/30 07:38:52;;;;;;;15.05;8.70;;;;;;;4.04;89.22;99451.50;4889705;29;20048;-79
2022/11/30 07:41:41;;;;;;;18.98;10.98;;;;;;;4.13;89.53;99448.59;4909189;29;20067;-84
2022/11/30 07:44:27;;;;;;;14.45;8.45;;;;;;;4.04;88.45;99452.34;4902391;29;20048;-80
2022/11/30 07:47:15;;;;;;;16.90;9.48;;;;;;;4.06;89.72;99444.53;4887874;29;20079;-80
2022/11/30 07:50:01;;;;;;;20.15;11.20;;;;;;;4.07;90.62;99443.63;4904349;29;20051;-79
2022/11/30 07:52:47;;;;;;;19.45;11.50;;;;;;;4.12;90.48;99446.91;4923717;29;20541;-77
2022/11/30 07:55:32;;;;;;;15.98;9.48;;;;;;;4.14;89.30;99459.84;4909154;29;20059;-78
2022/11/30 07:58:17;;;;;;;15.55;8.65;;;;;;;4.24;88.28;99456.06;4903524;29;20082;-80
2022/11/30 08:01:22;;;;;;;22.85;12.38;;;;;;;4.32;90.48;99463.59;4884376;29;20139;-80
2022/11/30 08:04:06;;;;;;;20.73;11.77;;;;;;;4.28;92.13;99449.03;4879427;29;20058;-78
2022/11/30 08:06:55;;;;;;;16.58;9.90;;;;;;;4.26;92.42;99453.44;4895564;29;20409;-81
2022/11/30 08:09:41;;;;;;;16.55;9.38;;;;;;;4.32;92.04;99454.06;4887198;29;20156;-80
2022/11/30 08:12:26;;;;;;;25.00;13.73;;;;;;;4.39;91.34;99456.47;4900499;29;20063;-81
2022/11/30 08:15:11;;;;;;;24.17;13.95;;;;;;;4.40;92.03;99453.84;4868959;29;20044;-81
2022/11/30 08:17:59;;;;;;;32.67;17.05;;;;;;;4.36;92.67;99464.38;4891246;29;20041;-81
2022/11/30 08:20:44;;;;;;;31.60;17.25;;;;;;;4.30;93.87;99460.22;4867994;29;20091;-79
2022/11/30 08:23:34;;;;;;;29.25;15.85;;;;;;;4.35;94.36;99466.09;4893656;29;20048;-79
2022/11/30 08:26:21;;;;;;;33.90;17.27;;;;;;;4.44;93.84;99467.53;4888391;29;20056;-80
2022/11/30 08:29:06;;;;;;;20.63;11.93;;;;;;;4.41;93.98;99465.03;4902140;28;20059;-79
2022/11/30 08:31:51;;;;;;;23.70;13.10;;;;;;;4.50;93.89;99475.16;4941953;28;20045;-81
2022/11/30 08:34:35;;;;;;;26.80;14.45;;;;;;;4.51;92.77;99473.38;4913210;28;20039;-79
2022/11/30 08:37:20;;;;;;;29.95;16.00;;;;;;;4.61;92.03;99471.34;4910123;28;20113;-80
2022/11/30 08:40:06;;;;;;;28.85;16.30;;;;;;;4.63;92.25;99475.59;4911667;28;20055;-80
2022/11/30 08:42:51;;;;;;;25.33;14.25;;;;;;;4.62;92.57;99467.88;4924111;28;20131;-81
2022/11/30 08:45:37;;;;;;;26.45;16.23;;;;;;;4.62;92.39;99479.06;4925115;28;20087;-79
2022/11/30 08:48:23;;;;;;;29.45;16.88;;;;;;;4.67;92.51;99479.78;4899029;28;20531;-79
2022/11/30 08:51:11;;;;;;;25.70;13.52;;;;;;;4.78;91.78;99483.78;4925974;28;20122;-81
2022/11/30 08:53:57;;;;;;;22.23;13.25;;;;;;;4.75;91.38;99483.88;4929757;28;20120;-79
2022/11/30 08:56:44;;;;;;;28.42;15.23;;;;;;;4.82;91.43;99485.38;4948574;28;20443;-79
2022/11/30 08:59:32;;;;;;;24.67;14.77;;;;;;;4.91;90.55;99487.66;4938751;28;20049;-78
2022/11/30 09:02:18;;;;;;;28.83;15.18;;;;;;;5.15;90.32;99487.72;4927910;28;20058;-79
2022/11/30 09:05:05;;;;;;;27.08;14.90;;;;;;;5.13;89.66;99484.34;4935014;28;20047;-79
2022/11/30 09:07:49;;;;;;;25.70;14.90;;;;;;;5.25;90.08;99487.41;4917369;28;20050;-82
2022/11/30 09:10:39;;;;;;;28.50;16.65;;;;;;;5.36;88.97;99490.47;4938164;28;20096;-80
2022/11/30 09:13:24;;;;;;;24.40;13.63;;;;;;;5.34;89.64;99494.88;4934465;28;20042;-80
2022/11/30 09:16:14;;;;;;;22.20;11.90;;;;;;;5.28;88.69;99498.53;4936758;28;20430;-88
2022/11/30 09:18:59;;;;;;;24.00;13.80;;;;;;;5.24;88.58;99502.13;4933881;28;20125;-80
2022/11/30 09:21:45;;;;;;;25.73;13.82;;;;;;;5.33;87.22;99495.78;4978694;28;20129;-79
2022/11/30 09:24:30;;;;;;;24.95;13.20;;;;;;;5.35;87.01;99495.72;4924437;28;20050;-80
2022/11/30 09:27:16;;;;;;;23.40;12.55;;;;;;;5.29;86.84;99491.56;4931336;28;20565;-80
2022/11/30 09:30:04;;;;;;;24.40;12.75;;;;;;;5.20;87.36;99489.31;4949356;28;20153;-80
2022/11/30 09:32:49;;;;;;;24.35;12.93;;;;;;;4.96;87.11;99484.88;4962432;28;20159;-81
2022/11/30 09:35:34;;;;;;;23.80;12.60;;;;;;;4.86;88.25;99491.31;4935000;28;20117;-82
2022/11/30 09:38:19;;;;;;;19.35;11.23;;;;;;;4.88;88.52;99494.72;4942661;28;20486;-80
2022/11/30 09:41:18;;;;;;;21.75;11.75;;;;;;;4.92;87.90;99491.09;4947250;28;20093;-80
2022/11/30 09:44:17;;;;;;;22.65;11.73;;;;;;;4.92;88.32;99489.38;4960722;28;20039;-81
2022/11/30 09:47:20;;;;;;;20.23;11.20;;;;;;;5.18;88.46;99481.56;4937751;28;20035;-79
2022/11/30 09:50:16;;;;;;;22.85;12.13;;;;;;;5.22;87.39;99488.38;4960357;28;20470;-80
2022/11/30 09:53:07;;;;;;;18.17;11.75;;;;;;;5.38;86.57;99491.28;4961301;28;20413;-84
2022/11/30 09:55:54;;;;;;;20.80;11.40;;;;;;;5.49;86.14;99485.69;4920359;28;20069;-79
2022/11/30 09:58:58;;;;;;;23.75;13.40;;;;;;;5.59;85.86;99485.34;4936615;28;20045;-85
2022/11/30 10:01:46;;;;;;;21.58;11.88;;;;;;;5.55;86.29;99482.84;4954810;28;20597;-80
2022/11/30 10:04:32;;;;;;;16.42;10.20;;;;;;;5.61;86.64;99487.00;4959038;28;20038;-80
2022/11/30 10:08:02;;;;;;;18.70;9.82;;;;;;;5.67;87.06;99496.31;4952988;28;20486;-80
2022/11/30 10:11:12;;;;;;;25.02;14.73;;;;;;;5.46;87.51;99492.75;4896996;29;20052;-79
2022/11/30 10:14:18;;;;;;;22.05;12.30;;;;;;;5.43;88.50;99489.34;4897426;29;20052;-80
2022/11/30 10:17:39;;;;;;;19.90;11.50;;;;;;;5.31;88.22;99474.19;4882635;29;20044;-79
2022/11/30 10:20:33;;;;;;;;;;;;;;;5.20;89.25;99481.50;4872617;29;20160;-79
2022/11/30 10:23:47;;;;;;;20.40;12.32;;;;;;;5.17;88.79;99472.09;4865873;29;20022;-78
2022/11/30 10:26:35;;;;;;;22.52;11.68;;;;;;;5.24;88.31;99464.94;4849998;29;20076;-81
2022/11/30 10:29:40;;;;;;;21.25;11.52;;;;;;;5.13;88.34;99462.69;4860699;29;20045;-82
2022/11/30 10:32:34;;;;;;;18.70;10.20;;;;;;;5.39;89.76;99458.31;4850250;29;20045;-79
2022/11/30 10:35:37;;;;;;;19.42;11.80;;;;;;;5.44;89.37;99451.22;4846176;29;20509;-79
2022/11/30 10:38:32;;;;;;;21.83;11.50;;;;;;;5.37;89.46;99435.00;4834962;29;20045;-78
2022/11/30 10:41:24;;;;;;;21.60;12.85;;;;;;;5.40;89.94;99426.25;4835045;29;20061;-78
2022/11/30 10:44:22;;;;;;;24.73;13.23;;;;;;;5.34;89.24;99427.31;4859521;29;20061;-81
2022/11/30 10:47:30;;;;;;;26.33;14.20;;;;;;;5.37;89.26;99439.38;4872390;29;20052;-80
2022/11/30 10:50:16;;;;;;;21.05;10.73;;;;;;;5.48;89.65;99437.22;4900117;29;20518;-79
2022/11/30 10:53:03;;;;;;;19.05;10.45;;;;;;;5.64;89.63;99436.63;4884682;29;20044;-78
2022/11/30 10:56:08;;;;;;;23.98;12.55;;;;;;;5.53;89.78;99437.88;4901559;29;20048;-79
2022/11/30 10:59:03;;;;;;;24.20;12.15;;;;;;;5.28;90.91;99438.78;4950711;28;20041;-80
2022/11/30 11:01:48;;;;;;;22.58;11.68;;;;;;;5.43;91.01;99441.72;4919321;28;20105;-78
2022/11/30 11:04:33;;;;;;;20.63;11.88;;;;;;;5.61;90.22;99453.22;4960566;28;20038;-81
2022/11/30 11:07:18;;;;;;;21.52;10.82;;;;;;;5.58;89.76;99458.50;4945264;28;20043;-80
2022/11/30 11:10:14;;;;;;;22.10;11.15;;;;;;;5.66;89.22;99447.84;4946422;28;20062;-80
2022/11/30 11:12:59;;;;;;;20.58;11.77;;;;;;;5.71;89.22;99450.25;4935495;28;20177;-81
2022/11/30 11:16:11;;;;;;;25.75;12.45;;;;;;;5.50;89.31;99444.97;4926555;28;20094;-80
2022/11/30 11:18:56;;;;;;;23.08;12.80;;;;;;;5.46;89.41;99443.34;4907118;28;20039;-79
2022/11/30 11:21:51;;;;;;;22.80;12.48;;;;;;;5.59;89.57;99441.16;4934734;28;20055;-80
2022/11/30 11:24:36;;;;;;;19.90;10.73;;;;;;;5.69;89.29;99429.50;4902473;28;20127;-79
2022/11/30 11:27:32;;;;;;;21.73;12.00;;;;;;;5.92;88.41;99431.22;4911530;28;20055;-80
2022/11/30 11:30:40;;;;;;;21.17;11.45;;;;;;;5.89;88.67;99428.75;4907076;28;20043;-82
2022/11/30 11:33:29;;;;;;;16.83;10.35;;;;;;;5.75;88.86;99441.41;4926116;28;20055;-78
2022/11/30 11:36:23;;;;;;;19.92;10.90;;;;;;;5.64;89.57;99429.69;4907074;28;20590;-80
2022/11/30 11:39:25;;;;;;;18.15;10.25;;;;;;;5.46;89.77;99440.75;4901924;28;20111;-80
2022/11/30 11:42:18;;;;;;;19.20;10.63;;;;;;;5.37;89.86;99436.75;4907397;28;20050;-81
2022/11/30 11:45:04;;;;;;;17.95;10.95;;;;;;;5.37;90.51;99429.78;4904743;29;20043;-80
2022/11/30 11:48:04;;;;;;;19.45;10.13;;;;;;;5.41;90.29;99422.75;4909362;28;20130;-79
2022/11/30 11:51:01;;;;;;;21.83;12.10;;;;;;;5.40;90.01;99413.25;4923348;29;20052;-79
2022/11/30 11:53:52;;;;;;;22.45;11.60;;;;;;;5.39;91.10;99421.94;4952226;28;20058;-80
2022/11/30 11:56:37;;;;;;;19.60;11.30;;;;;;;5.57;90.20;99409.16;4927574;28;20046;-80
2022/11/30 11:59:40;;;;;;;20.27;11.10;;;;;;;5.70;89.74;99419.94;4954189;28;20058;-79
2022/11/30 12:02:39;;;;;;;18.33;10.95;;;;;;;5.53;89.57;99417.06;4947155;28;20108;-80
2022/11/30 12:05:36;;;;;;;14.93;9.38;;;;;;;5.58;90.18;99427.31;4928996;28;20089;-81
2022/11/30 12:08:37;;;;;;;17.90;10.80;;;;;;;5.54;89.62;99425.72;4942762;28;20042;-80
2022/11/30 12:11:38;;;;;;;17.45;10.20;;;;;;;5.52;91.01;99419.72;4950277;28;20404;-81
2022/11/30 12:14:24;;;;;;;19.92;10.90;;;;;;;5.59;89.81;99420.34;4955095;28;20087;-79
2022/11/30 12:17:15;;;;;;;23.85;13.60;;;;;;;5.57;90.28;99416.97;4939547;28;20047;-80
2022/11/30 12:20:32;;;;;;;20.95;12.38;;;;;;;5.43;90.53;99418.34;4919261;29;20051;-83
2022/11/30 12:23:42;;;;;;;22.77;12.73;;;;;;;5.55;91.29;99419.63;4932935;29;20514;-83
2022/11/30 12:26:40;;;;;;;20.63;11.48;;;;;;;5.63;90.65;99416.75;4907657;29;20053;-84
2022/11/30 12:29:55;;;;;;;18.33;10.43;;;;;;;5.67;90.84;99413.97;4905823;29;20569;-79
2022/11/30 12:33:11;;;;;;;21.30;13.18;;;;;;;5.67;90.22;99402.72;4918197;29;20046;-80
2022/11/30 12:36:11;;;;;;;24.45;12.25;;;;;;;5.64;90.59;99403.69;4899271;29;20058;-81
2022/11/30 12:38:58;;;;;;;24.65;12.68;;;;;;;5.67;90.02;99407.91;4913739;29;20047;-81
2022/11/30 12:41:51;;;;;;;22.55;12.63;;;;;;;5.63;90.28;99401.97;4919499;29;20035;-81
2022/11/30 12:45:05;;;;;;;20.48;12.25;;;;;;;5.59;90.89;99407.34;4906797;29;20055;-81
2022/11/30 12:48:11;;;;;;;17.83;10.00;;;;;;;5.59;91.33;99413.41;4896515;29;20196;-80
2022/11/30 12:51:09;;;;;;;16.73;10.57;;;;;;;5.86;90.86;99399.44;4892634;29;20044;-81
2022/11/30 12:54:08;;;;;;;21.60;12.07;;;;;;;5.62;90.58;99392.50;4864394;29;20055;-83
2022/11/30 12:57:04;;;;;;;20.95;9.90;;;;;;;5.57;90.99;99396.16;4894664;28;20102;-81
2022/11/30 13:00:21;;;;;;;19.63;10.43;;;;;;;5.64;90.85;99389.84;4894506;28;20586;-79
2022/11/30 13:03:09;;;;;;;21.63;12.88;;;;;;;5.59;90.63;99392.63;4932464;28;20047;-80
2022/11/30 13:06:04;;;;;;;17.90;10.15;;;;;;;5.61;91.41;99392.56;4918261;28;20308;-80
2022/11/30 13:09:01;;;;;;;26.52;14.27;;;;;;;5.44;91.62;99388.84;4917086;28;20051;-81
2022/11/30 13:11:54;;;;;;;20.23;10.50;;;;;;;5.34;92.13;99396.13;4907490;28;20217;-79